地図

経路データ

SID SEASON NUMBER BASIN SUBBASIN NAME ISO_TIME NATURE LAT LON WMO_WIND WMO_PRES WMO_AGENCY TRACK_TYPE DIST2LAND LANDFALL IFLAG USA_AGENCY USA_ATCF_ID USA_LAT USA_LON USA_RECORD USA_STATUS USA_WIND USA_PRES USA_SSHS USA_R34_NE USA_R34_SE USA_R34_SW USA_R34_NW USA_R50_NE USA_R50_SE USA_R50_SW USA_R50_NW USA_R64_NE USA_R64_SE USA_R64_SW USA_R64_NW USA_POCI USA_ROCI USA_RMW USA_EYE TOKYO_LAT TOKYO_LON TOKYO_GRADE TOKYO_WIND TOKYO_PRES TOKYO_R50_DIR TOKYO_R50_LONG TOKYO_R50_SHORT TOKYO_R30_DIR TOKYO_R30_LONG TOKYO_R30_SHORT TOKYO_LAND CMA_LAT CMA_LON CMA_CAT CMA_WIND CMA_PRES HKO_LAT HKO_LON HKO_CAT HKO_WIND HKO_PRES NEWDELHI_LAT NEWDELHI_LON NEWDELHI_GRADE NEWDELHI_WIND NEWDELHI_PRES NEWDELHI_CI NEWDELHI_DP NEWDELHI_POCI REUNION_LAT REUNION_LON REUNION_TYPE REUNION_WIND REUNION_PRES REUNION_TNUM REUNION_CI REUNION_RMW REUNION_R34_NE REUNION_R34_SE REUNION_R34_SW REUNION_R34_NW REUNION_R50_NE REUNION_R50_SE REUNION_R50_SW REUNION_R50_NW REUNION_R64_NE REUNION_R64_SE REUNION_R64_SW REUNION_R64_NW BOM_LAT BOM_LON BOM_TYPE BOM_WIND BOM_PRES BOM_TNUM BOM_CI BOM_RMW BOM_R34_NE BOM_R34_SE BOM_R34_SW BOM_R34_NW BOM_R50_NE BOM_R50_SE BOM_R50_SW BOM_R50_NW BOM_R64_NE BOM_R64_SE BOM_R64_SW BOM_R64_NW BOM_ROCI BOM_POCI BOM_EYE BOM_POS_METHOD BOM_PRES_METHOD NADI_LAT NADI_LON NADI_CAT NADI_WIND NADI_PRES WELLINGTON_LAT WELLINGTON_LON WELLINGTON_WIND WELLINGTON_PRES DS824_LAT DS824_LON DS824_STAGE DS824_WIND DS824_PRES TD9636_LAT TD9636_LON TD9636_STAGE TD9636_WIND TD9636_PRES TD9635_LAT TD9635_LON TD9635_WIND TD9635_PRES TD9635_ROCI NEUMANN_LAT NEUMANN_LON NEUMANN_CLASS NEUMANN_WIND NEUMANN_PRES MLC_LAT MLC_LON MLC_CLASS MLC_WIND MLC_PRES USA_GUST BOM_GUST BOM_GUST_PER REUNION_GUST REUNION_GUST_PER USA_SEAHGT USA_SEARAD_NE USA_SEARAD_SE USA_SEARAD_SW USA_SEARAD_NW STORM_SPEED STORM_DIR
1892052S15062 1892 12 SI MM NOT_NAMED 1892-02-21 06:00:00 NR -14.8000 61.9000 reunion main 741 713 _____O________ -1 -14.8000 61.9000 99 9.90000 6 258
1892052S15062 1892 12 SI MM NOT_NAMED 1892-02-21 09:00:00 NR -14.8614 61.5985 main 713 695 _____P________ -1 -14.8614 61.5985 99 6 258
1892052S15062 1892 12 SI MM NOT_NAMED 1892-02-21 12:00:00 NR -14.9227 61.2947 main 695 669 _____P________ -1 -14.9227 61.2947 99 6 258
1892052S15062 1892 12 SI MM NOT_NAMED 1892-02-21 15:00:00 NR -14.9841 60.9863 main 669 663 _____P________ -1 -14.9841 60.9863 99 4 255
1892052S15062 1892 12 SI MM NOT_NAMED 1892-02-21 18:00:00 NR -15.0366 60.8570 main 663 638 _____P____O___ -1 -15.0458 60.6712 99 -15.0000 61.6000 7 4 254
1892052S15062 1892 12 SI MM NOT_NAMED 1892-02-21 21:00:00 NR -15.0958 60.5883 main 638 613 _____P____P___ -1 -15.1081 60.3473 99 -15.0712 61.0705 7 6 258
1892052S15062 1892 12 SI MM NOT_NAMED 1892-02-22 00:00:00 NR -15.1592 60.2395 main 608 595 _____P____P___ -1 -15.1711 60.0122 99 -15.1434 60.5427 7 7 260
1892052S15062 1892 12 SI MM NOT_NAMED 1892-02-22 03:00:00 NR -15.2269 59.8412 main 591 566 _____P____P___ -1 -15.2350 59.6639 99 -15.2189 60.0185 7 8 260
1892052S15062 1892 12 SI MM NOT_NAMED 1892-02-22 06:00:00 NR -15.3000 59.4000 reunion main 566 543 _____O____O___ -1 -15.3000 59.3000 99 9.90000 -15.3000 59.5000 7 9 260
1892052S15062 1892 12 SI MM NOT_NAMED 1892-02-22 09:00:00 NR -15.3776 58.9547 main 543 521 _____P____P___ -1 -15.3667 58.9191 99 -15.3886 58.9903 7 9 259
1892052S15062 1892 12 SI MM NOT_NAMED 1892-02-22 12:00:00 NR -15.4611 58.5098 main 521 516 _____P____P___ -1 -15.4374 58.5222 99 -15.4848 58.4975 7 9 258
1892052S15062 1892 12 SI MM NOT_NAMED 1892-02-22 15:00:00 NR -15.5518 58.0710 main 505 503 _____P____P___ -1 -15.5149 58.1110 99 -15.5887 58.0309 7 9 257
1892052S15062 1892 12 SI MM NOT_NAMED 1892-02-22 18:00:00 NR -15.6509 57.6437 main 492 492 _____P____O___ -1 -15.6018 57.6873 99 -15.7000 57.6000 7 8 256
1892052S15062 1892 12 SI MM NOT_NAMED 1892-02-22 21:00:00 NR -15.7529 57.2454 main 482 474 _____P____P___ -1 -15.7010 57.2528 99 -15.8048 57.2380 7 8 254
1892052S15062 1892 12 SI MM NOT_NAMED 1892-02-23 00:00:00 NR -15.8671 56.8579 main 474 468 _____P____P___ -1 -15.8152 56.8090 99 -15.9189 56.9068 7 8 252
1892052S15062 1892 12 SI MM NOT_NAMED 1892-02-23 03:00:00 NR -15.9979 56.4649 main 470 465 _____P____P___ -1 -15.9473 56.3575 99 -16.0485 56.5722 7 8 250
1892052S15062 1892 12 SI MM NOT_NAMED 1892-02-23 06:00:00 NR -16.1500 56.0500 reunion main 471 460 _____O____O___ -1 -16.1000 55.9000 99 9.90000 -16.2000 56.2000 7 9 250
1892052S15062 1892 12 SI MM NOT_NAMED 1892-02-23 09:00:00 NR -16.3012 55.5952 main 470 469 _____P____P___ -1 -16.2360 55.4475 99 -16.3664 55.7430 7 10 250
1892052S15062 1892 12 SI MM NOT_NAMED 1892-02-23 12:00:00 NR -16.4716 55.1159 main 475 461 _____P____P___ -1 -16.3881 54.9871 99 -16.5551 55.2447 7 10 249
1892052S15062 1892 12 SI MM NOT_NAMED 1892-02-23 15:00:00 NR -16.6636 54.6218 main 461 425 _____P____P___ -1 -16.5608 54.5196 99 -16.7663 54.7241 7 10 247
1892052S15062 1892 12 SI MM NOT_NAMED 1892-02-23 18:00:00 NR -16.8795 54.1230 main 419 390 _____P____O___ -1 -16.7590 54.0459 99 -17.0000 54.2000 7 10 245
1892052S15062 1892 12 SI MM NOT_NAMED 1892-02-23 21:00:00 NR -17.1079 53.6369 main 380 351 _____P____P___ -1 -16.9873 53.5665 99 -17.2286 53.7073 7 11 242
1892052S15062 1892 12 SI MM NOT_NAMED 1892-02-24 00:00:00 NR -17.3661 53.1479 main 346 320 _____P____P___ -1 -17.2503 53.0821 99 -17.4818 53.2137 7 11 239
1892052S15062 1892 12 SI MM NOT_NAMED 1892-02-24 03:00:00 NR -17.6611 52.6532 main 324 282 _____P____P___ -1 -17.5530 52.5931 99 -17.7691 52.7133 7 11 236
1892052S15062 1892 12 SI MM NOT_NAMED 1892-02-24 06:00:00 NR -18.0000 52.1500 reunion main 287 233 _____O____O___ -1 -17.9000 52.1000 99 9.90000 -18.1000 52.2000 7 12 234
1892052S15062 1892 12 SI MM NOT_NAMED 1892-02-24 09:00:00 NR -18.3899 51.5975 main 233 191 _____P____P___ -1 -18.3182 51.5431 99 -18.4616 51.6519 7 13 232
1892052S15062 1892 12 SI MM NOT_NAMED 1892-02-24 12:00:00 NR -18.8264 51.0318 main 181 147 _____P____P___ -1 -18.7853 50.9717 99 -18.8676 51.0920 7 14 230
1892052S15062 1892 12 SI MM NOT_NAMED 1892-02-24 15:00:00 NR -19.3016 50.4675 main 150 113 _____P____P___ -1 -19.2884 50.3989 99 -19.3147 50.5360 7 14 227
1892052S15062 1892 12 SI MM NOT_NAMED 1892-02-24 18:00:00 NR -19.8073 49.9191 main 113 71 _____P____O___ -1 -19.8147 49.8383 99 -19.8000 50.0000 7 15 224
1892052S15062 1892 12 SI MM NOT_NAMED 1892-02-24 21:00:00 NR -20.3470 49.3777 main 71 47 _____P____P___ -1 -20.3515 49.3036 99 -20.3426 49.4518 7 15 222
1892052S15062 1892 12 SI MM NOT_NAMED 1892-02-25 00:00:00 NR -20.9007 48.8706 main 51 10 _____P____P___ -1 -20.8862 48.8093 99 -20.9153 48.9318 7 14 219
1892052S15062 1892 12 SI MM NOT_NAMED 1892-02-25 03:00:00 NR -21.4433 48.4202 main 10 0 _____P____P___ -1 -21.4064 48.3697 99 -21.4803 48.4707 7 13 216
1892052S15062 1892 12 SI MM NOT_NAMED 1892-02-25 06:00:00 NR -21.9500 48.0500 reunion main 0 0 _____O____O___ -1 -21.9000 48.0000 99 9.90000 -22.0000 48.1000 7 11 212
1892052S15062 1892 12 SI MM NOT_NAMED 1892-02-25 09:00:00 NR -22.3859 47.7840 main 0 0 _____P____P___ -1 -22.3475 47.7255 99 -22.4244 47.8425 7 9 206
1892052S15062 1892 12 SI MM NOT_NAMED 1892-02-25 12:00:00 NR -22.7898 47.5988 main 0 0 _____P____P___ -1 -22.7782 47.5198 99 -22.8015 47.6778 7 8 200
1892052S15062 1892 12 SI MM NOT_NAMED 1892-02-25 15:00:00 NR -23.1716 47.4739 main 0 0 _____P____P___ -1 -23.1905 47.3735 99 -23.1528 47.5743 7 8 195
1892052S15062 1892 12 SI MM NOT_NAMED 1892-02-25 18:00:00 NR -23.5411 47.3886 main 0 0 _____P____O___ -1 -23.5821 47.2773 99 -23.5000 47.5000 7 8 191
1892052S15062 1892 12 SI MM NOT_NAMED 1892-02-25 21:00:00 NR -23.9056 47.3248 main 0 0 _____P____P___ -1 -23.9512 47.2215 99 -23.8600 47.4281 7 7 189
1892052S15062 1892 12 SI MM NOT_NAMED 1892-02-26 00:00:00 NR -24.2686 47.2639 main 0 0 _____P____P___ -1 -24.2953 47.1966 99 -24.2329 47.3537 7 7 188
1892052S15062 1892 12 SI MM NOT_NAMED 1892-02-26 03:00:00 NR -24.6130 47.2210 main 0 0 _____P____P___ -1 -24.6124 47.1927 99 -24.6144 47.2774 7 7 185
1892052S15062 1892 12 SI MM NOT_NAMED 1892-02-26 06:00:00 NR -24.9200 47.2000 reunion main 10 10 _____O____O___ -1 -24.9000 47.2000 99 9.90000 -25.0000 47.2000 7 5 180
1892052S15062 1892 12 SI MM NOT_NAMED 1892-02-26 09:00:00 NR -25.1570 47.2100 main 23 23 _____P________ -1 -25.1570 47.2100 99 7 5 178
1892052S15062 1892 12 SI MM NOT_NAMED 1892-02-26 12:00:00 NR -25.3861 47.2210 main 39 39 _____P________ -1 -25.3861 47.2210 99 7 4 177
1892052S15062 1892 12 SI MM NOT_NAMED 1892-02-26 15:00:00 NR -25.5915 47.2329 main 59 59 _____P________ -1 -25.5915 47.2329 99 7 4 176
1892052S15062 1892 12 SI MM NOT_NAMED 1892-02-26 18:00:00 NR -25.7770 47.2454 main 78 78 _____P________ -1 -25.7770 47.2454 99 4 176
1892052S15062 1892 12 SI MM NOT_NAMED 1892-02-26 21:00:00 NR -25.9467 47.2585 main 92 92 _____P________ -1 -25.9467 47.2585 99 3 0
1892052S15062 1892 12 SI MM NOT_NAMED 1892-02-27 00:00:00 NR -26.1044 47.2721 main 112 112 _____P________ -1 -26.1044 47.2721 99 3 0
1892052S15062 1892 12 SI MM NOT_NAMED 1892-02-27 03:00:00 NR -26.2542 47.2860 main 132 132 _____P________ -1 -26.2542 47.2860 99 3 177
1892052S15062 1892 12 SI MM NOT_NAMED 1892-02-27 06:00:00 NR -26.4000 47.3000 reunion main 143 _____O________ -1 -26.4000 47.3000 99 9.90000 3 170

IBTrACS Databaseについて

本データベースは、米国NOAAが公開する1842年以降の世界の熱帯低気圧のベストトラックデータアーカイブInternational Best Track Archive for Climate Stewardship (IBTrACS)を、ウェブで閲覧しやすい形式に変換したものです。

最終更新日:2021-10-21